sensor_id;sensor_type;location;lat;lon;timestamp;P1;durP1;ratioP1;P2;durP2;ratioP2
49183;SDS011;35021;49.214;12.270;2023-04-09T00:01:10;3.00;;;2.58;;
49183;SDS011;35021;49.214;12.270;2023-04-09T00:03:37;2.78;;;2.38;;
49183;SDS011;35021;49.214;12.270;2023-04-09T00:06:04;2.97;;;2.50;;
49183;SDS011;35021;49.214;12.270;2023-04-09T00:08:31;2.90;;;2.60;;
49183;SDS011;35021;49.214;12.270;2023-04-09T00:10:58;2.97;;;2.67;;
49183;SDS011;35021;49.214;12.270;2023-04-09T00:13:25;2.92;;;2.45;;
49183;SDS011;35021;49.214;12.270;2023-04-09T00:16:04;2.45;;;2.20;;
49183;SDS011;35021;49.214;12.270;2023-04-09T00:18:32;2.70;;;2.50;;
49183;SDS011;35021;49.214;12.270;2023-04-09T00:20:59;2.58;;;2.38;;
49183;SDS011;35021;49.214;12.270;2023-04-09T00:23:26;2.75;;;2.42;;
49183;SDS011;35021;49.214;12.270;2023-04-09T00:25:53;2.65;;;2.30;;
49183;SDS011;35021;49.214;12.270;2023-04-09T00:28:19;2.45;;;2.25;;
49183;SDS011;35021;49.214;12.270;2023-04-09T00:30:46;2.22;;;2.03;;
49183;SDS011;35021;49.214;12.270;2023-04-09T00:33:13;2.58;;;2.38;;
49183;SDS011;35021;49.214;12.270;2023-04-09T00:35:40;2.42;;;2.13;;
49183;SDS011;35021;49.214;12.270;2023-04-09T00:38:07;2.80;;;2.30;;
49183;SDS011;35021;49.214;12.270;2023-04-09T00:40:34;3.15;;;2.25;;
49183;SDS011;35021;49.214;12.270;2023-04-09T00:43:01;3.10;;;2.13;;
49183;SDS011;35021;49.214;12.270;2023-04-09T00:45:28;2.53;;;1.98;;
49183;SDS011;35021;49.214;12.270;2023-04-09T00:47:56;2.28;;;1.80;;
49183;SDS011;35021;49.214;12.270;2023-04-09T00:50:23;3.92;;;2.17;;
49183;SDS011;35021;49.214;12.270;2023-04-09T00:52:50;2.63;;;2.10;;
49183;SDS011;35021;49.214;12.270;2023-04-09T00:55:17;2.47;;;1.98;;
49183;SDS011;35021;49.214;12.270;2023-04-09T00:57:45;2.15;;;1.95;;
49183;SDS011;35021;49.214;12.270;2023-04-09T01:00:12;2.58;;;2.38;;
49183;SDS011;35021;49.214;12.270;2023-04-09T01:02:40;2.53;;;2.15;;
49183;SDS011;35021;49.214;12.270;2023-04-09T01:05:09;2.25;;;2.00;;
49183;SDS011;35021;49.214;12.270;2023-04-09T01:07:56;3.08;;;2.08;;
49183;SDS011;35021;49.214;12.270;2023-04-09T01:13:05;2.65;;;2.25;;
49183;SDS011;35021;49.214;12.270;2023-04-09T01:15:48;2.53;;;2.28;;
49183;SDS011;35021;49.214;12.270;2023-04-09T01:18:23;2.38;;;2.17;;
49183;SDS011;35021;49.214;12.270;2023-04-09T01:20:56;3.03;;;2.45;;
49183;SDS011;35021;49.214;12.270;2023-04-09T01:23:32;4.25;;;2.55;;
49183;SDS011;35021;49.214;12.270;2023-04-09T01:26:17;2.60;;;2.40;;
49183;SDS011;35021;49.214;12.270;2023-04-09T01:28:55;3.33;;;2.30;;
49183;SDS011;35021;49.214;12.270;2023-04-09T01:31:25;2.33;;;2.13;;
49183;SDS011;35021;49.214;12.270;2023-04-09T01:33:55;2.30;;;2.10;;
49183;SDS011;35021;49.214;12.270;2023-04-09T01:36:23;3.15;;;2.20;;
49183;SDS011;35021;49.214;12.270;2023-04-09T01:38:52;3.28;;;2.13;;
49183;SDS011;35021;49.214;12.270;2023-04-09T01:41:22;2.67;;;2.00;;
49183;SDS011;35021;49.214;12.270;2023-04-09T01:43:50;3.20;;;2.20;;
49183;SDS011;35021;49.214;12.270;2023-04-09T01:46:19;2.05;;;1.85;;
49183;SDS011;35021;49.214;12.270;2023-04-09T01:48:48;4.45;;;2.40;;
49183;SDS011;35021;49.214;12.270;2023-04-09T01:51:15;2.20;;;1.98;;
49183;SDS011;35021;49.214;12.270;2023-04-09T01:53:43;5.43;;;2.42;;
49183;SDS011;35021;49.214;12.270;2023-04-09T01:56:09;2.20;;;1.98;;
49183;SDS011;35021;49.214;12.270;2023-04-09T01:58:36;2.40;;;2.20;;
49183;SDS011;35021;49.214;12.270;2023-04-09T02:01:19;3.30;;;2.17;;
49183;SDS011;35021;49.214;12.270;2023-04-09T02:03:51;2.03;;;1.77;;
49183;SDS011;35021;49.214;12.270;2023-04-09T02:09:12;2.38;;;1.67;;
49183;SDS011;35021;49.214;12.270;2023-04-09T02:11:44;2.55;;;2.10;;
49183;SDS011;35021;49.214;12.270;2023-04-09T02:14:13;2.60;;;2.00;;
49183;SDS011;35021;49.214;12.270;2023-04-09T02:16:41;2.80;;;1.80;;
49183;SDS011;35021;49.214;12.270;2023-04-09T02:19:08;2.10;;;1.90;;
49183;SDS011;35021;49.214;12.270;2023-04-09T02:21:35;2.28;;;2.08;;
49183;SDS011;35021;49.214;12.270;2023-04-09T02:24:02;2.80;;;2.30;;
49183;SDS011;35021;49.214;12.270;2023-04-09T02:26:29;2.30;;;2.03;;
49183;SDS011;35021;49.214;12.270;2023-04-09T02:28:55;2.28;;;2.08;;
49183;SDS011;35021;49.214;12.270;2023-04-09T02:31:22;2.22;;;2.03;;
49183;SDS011;35021;49.214;12.270;2023-04-09T02:33:49;2.60;;;2.40;;
49183;SDS011;35021;49.214;12.270;2023-04-09T02:36:16;4.18;;;2.17;;
49183;SDS011;35021;49.214;12.270;2023-04-09T02:38:43;2.80;;;2.50;;
49183;SDS011;35021;49.214;12.270;2023-04-09T02:41:10;2.92;;;2.53;;
49183;SDS011;35021;49.214;12.270;2023-04-09T02:43:37;2.95;;;2.40;;
49183;SDS011;35021;49.214;12.270;2023-04-09T02:46:05;2.72;;;1.92;;
49183;SDS011;35021;49.214;12.270;2023-04-09T02:48:32;2.53;;;1.98;;
49183;SDS011;35021;49.214;12.270;2023-04-09T02:50:59;3.22;;;2.25;;
49183;SDS011;35021;49.214;12.270;2023-04-09T02:53:26;3.15;;;2.50;;
49183;SDS011;35021;49.214;12.270;2023-04-09T02:55:53;2.92;;;2.40;;
49183;SDS011;35021;49.214;12.270;2023-04-09T02:58:20;2.60;;;2.33;;
49183;SDS011;35021;49.214;12.270;2023-04-09T03:00:48;2.90;;;2.30;;
49183;SDS011;35021;49.214;12.270;2023-04-09T03:03:15;3.13;;;2.63;;
49183;SDS011;35021;49.214;12.270;2023-04-09T03:05:42;2.50;;;2.28;;
49183;SDS011;35021;49.214;12.270;2023-04-09T03:08:09;2.40;;;2.20;;
49183;SDS011;35021;49.214;12.270;2023-04-09T03:10:36;3.00;;;2.70;;
49183;SDS011;35021;49.214;12.270;2023-04-09T03:13:03;3.28;;;2.33;;
49183;SDS011;35021;49.214;12.270;2023-04-09T03:15:30;4.05;;;3.10;;
49183;SDS011;35021;49.214;12.270;2023-04-09T03:17:57;2.92;;;2.40;;
49183;SDS011;35021;49.214;12.270;2023-04-09T03:20:23;2.90;;;2.60;;
49183;SDS011;35021;49.214;12.270;2023-04-09T03:22:50;2.60;;;2.40;;
49183;SDS011;35021;49.214;12.270;2023-04-09T03:25:17;4.03;;;2.90;;
49183;SDS011;35021;49.214;12.270;2023-04-09T03:27:45;2.78;;;2.53;;
49183;SDS011;35021;49.214;12.270;2023-04-09T03:30:12;3.00;;;2.63;;
49183;SDS011;35021;49.214;12.270;2023-04-09T03:32:39;3.35;;;2.30;;
49183;SDS011;35021;49.214;12.270;2023-04-09T03:35:06;3.17;;;2.33;;
49183;SDS011;35021;49.214;12.270;2023-04-09T03:37:33;4.72;;;2.40;;
49183;SDS011;35021;49.214;12.270;2023-04-09T03:40:00;3.00;;;2.20;;
49183;SDS011;35021;49.214;12.270;2023-04-09T03:42:28;3.00;;;2.25;;
49183;SDS011;35021;49.214;12.270;2023-04-09T03:44:54;2.58;;;2.15;;
49183;SDS011;35021;49.214;12.270;2023-04-09T03:47:21;3.22;;;2.70;;
49183;SDS011;35021;49.214;12.270;2023-04-09T03:49:48;2.80;;;2.50;;
49183;SDS011;35021;49.214;12.270;2023-04-09T03:52:15;2.80;;;2.47;;
49183;SDS011;35021;49.214;12.270;2023-04-09T03:54:42;2.85;;;2.03;;
49183;SDS011;35021;49.214;12.270;2023-04-09T03:57:09;4.50;;;2.35;;
49183;SDS011;35021;49.214;12.270;2023-04-09T03:59:36;4.28;;;2.35;;
49183;SDS011;35021;49.214;12.270;2023-04-09T04:02:03;2.38;;;2.00;;
49183;SDS011;35021;49.214;12.270;2023-04-09T04:04:30;4.65;;;2.60;;
49183;SDS011;35021;49.214;12.270;2023-04-09T04:06:57;3.13;;;2.10;;
49183;SDS011;35021;49.214;12.270;2023-04-09T04:09:24;2.50;;;2.30;;
49183;SDS011;35021;49.214;12.270;2023-04-09T04:11:51;3.00;;;2.40;;
49183;SDS011;35021;49.214;12.270;2023-04-09T04:14:18;3.03;;;2.72;;
49183;SDS011;35021;49.214;12.270;2023-04-09T04:16:44;3.42;;;2.90;;
49183;SDS011;35021;49.214;12.270;2023-04-09T04:19:11;3.13;;;2.63;;
49183;SDS011;35021;49.214;12.270;2023-04-09T04:21:38;3.40;;;2.40;;
49183;SDS011;35021;49.214;12.270;2023-04-09T04:24:05;4.35;;;2.80;;
49183;SDS011;35021;49.214;12.270;2023-04-09T04:26:32;2.75;;;2.55;;
49183;SDS011;35021;49.214;12.270;2023-04-09T04:28:59;5.15;;;2.58;;
49183;SDS011;35021;49.214;12.270;2023-04-09T04:31:26;3.25;;;2.70;;
49183;SDS011;35021;49.214;12.270;2023-04-09T04:33:53;3.78;;;2.90;;
49183;SDS011;35021;49.214;12.270;2023-04-09T04:36:19;2.85;;;2.60;;
49183;SDS011;35021;49.214;12.270;2023-04-09T04:38:46;4.05;;;2.78;;
49183;SDS011;35021;49.214;12.270;2023-04-09T04:41:13;3.70;;;3.17;;
49183;SDS011;35021;49.214;12.270;2023-04-09T04:43:40;2.97;;;2.67;;
49183;SDS011;35021;49.214;12.270;2023-04-09T04:46:07;6.55;;;3.72;;
49183;SDS011;35021;49.214;12.270;2023-04-09T04:48:34;3.30;;;3.00;;
49183;SDS011;35021;49.214;12.270;2023-04-09T04:51:01;4.38;;;3.15;;
49183;SDS011;35021;49.214;12.270;2023-04-09T04:53:28;3.65;;;3.30;;
49183;SDS011;35021;49.214;12.270;2023-04-09T04:55:55;4.07;;;3.55;;
49183;SDS011;35021;49.214;12.270;2023-04-09T04:58:22;4.03;;;3.63;;
49183;SDS011;35021;49.214;12.270;2023-04-09T05:00:49;3.85;;;3.53;;
49183;SDS011;35021;49.214;12.270;2023-04-09T05:03:17;4.18;;;3.40;;
49183;SDS011;35021;49.214;12.270;2023-04-09T05:05:44;4.22;;;3.45;;
49183;SDS011;35021;49.214;12.270;2023-04-09T05:08:11;3.97;;;3.58;;
49183;SDS011;35021;49.214;12.270;2023-04-09T05:10:41;3.38;;;3.08;;
49183;SDS011;35021;49.214;12.270;2023-04-09T05:13:09;4.00;;;3.60;;
49183;SDS011;35021;49.214;12.270;2023-04-09T05:15:36;3.70;;;3.40;;
49183;SDS011;35021;49.214;12.270;2023-04-09T05:18:04;3.45;;;3.15;;
49183;SDS011;35021;49.214;12.270;2023-04-09T05:20:33;3.90;;;3.50;;
49183;SDS011;35021;49.214;12.270;2023-04-09T05:23:01;4.13;;;3.28;;
49183;SDS011;35021;49.214;12.270;2023-04-09T05:25:28;3.13;;;2.80;;
49183;SDS011;35021;49.214;12.270;2023-04-09T05:27:55;3.72;;;3.42;;
49183;SDS011;35021;49.214;12.270;2023-04-09T05:30:22;3.60;;;3.22;;
49183;SDS011;35021;49.214;12.270;2023-04-09T05:32:49;3.05;;;2.75;;
49183;SDS011;35021;49.214;12.270;2023-04-09T05:35:16;3.30;;;2.58;;
49183;SDS011;35021;49.214;12.270;2023-04-09T05:37:43;3.15;;;2.83;;
49183;SDS011;35021;49.214;12.270;2023-04-09T05:40:10;2.95;;;2.65;;
49183;SDS011;35021;49.214;12.270;2023-04-09T05:42:38;3.30;;;2.50;;
49183;SDS011;35021;49.214;12.270;2023-04-09T05:45:04;3.10;;;2.80;;
49183;SDS011;35021;49.214;12.270;2023-04-09T05:47:33;2.95;;;2.65;;
49183;SDS011;35021;49.214;12.270;2023-04-09T05:50:00;3.42;;;3.13;;
49183;SDS011;35021;49.214;12.270;2023-04-09T05:52:27;3.65;;;3.00;;
49183;SDS011;35021;49.214;12.270;2023-04-09T05:54:54;3.58;;;3.25;;
49183;SDS011;35021;49.214;12.270;2023-04-09T05:57:20;3.83;;;3.53;;
49183;SDS011;35021;49.214;12.270;2023-04-09T05:59:47;4.10;;;3.70;;
49183;SDS011;35021;49.214;12.270;2023-04-09T06:02:14;4.28;;;3.78;;
49183;SDS011;35021;49.214;12.270;2023-04-09T06:04:41;5.10;;;4.03;;
49183;SDS011;35021;49.214;12.270;2023-04-09T06:07:08;4.40;;;4.00;;
49183;SDS011;35021;49.214;12.270;2023-04-09T06:09:35;4.60;;;4.05;;
49183;SDS011;35021;49.214;12.270;2023-04-09T06:12:03;4.40;;;3.97;;
49183;SDS011;35021;49.214;12.270;2023-04-09T06:14:30;4.03;;;3.65;;
49183;SDS011;35021;49.214;12.270;2023-04-09T06:16:58;4.18;;;3.78;;
49183;SDS011;35021;49.214;12.270;2023-04-09T06:19:25;4.47;;;4.07;;
49183;SDS011;35021;49.214;12.270;2023-04-09T06:21:52;4.65;;;4.22;;
49183;SDS011;35021;49.214;12.270;2023-04-09T06:24:19;4.07;;;3.67;;
49183;SDS011;35021;49.214;12.270;2023-04-09T06:26:46;4.53;;;4.13;;
49183;SDS011;35021;49.214;12.270;2023-04-09T06:29:13;4.72;;;4.30;;
49183;SDS011;35021;49.214;12.270;2023-04-09T06:31:40;5.93;;;4.28;;
49183;SDS011;35021;49.214;12.270;2023-04-09T06:34:07;5.03;;;4.57;;
49183;SDS011;35021;49.214;12.270;2023-04-09T06:36:34;5.13;;;4.03;;
49183;SDS011;35021;49.214;12.270;2023-04-09T06:39:03;5.53;;;5.03;;
49183;SDS011;35021;49.214;12.270;2023-04-09T06:41:30;4.75;;;4.03;;
49183;SDS011;35021;49.214;12.270;2023-04-09T06:43:58;4.70;;;4.20;;
49183;SDS011;35021;49.214;12.270;2023-04-09T06:46:24;5.15;;;4.63;;
49183;SDS011;35021;49.214;12.270;2023-04-09T06:48:52;5.00;;;4.55;;
49183;SDS011;35021;49.214;12.270;2023-04-09T06:51:19;5.90;;;5.20;;
49183;SDS011;35021;49.214;12.270;2023-04-09T06:53:46;8.70;;;5.88;;
49183;SDS011;35021;49.214;12.270;2023-04-09T06:56:13;6.80;;;6.10;;
49183;SDS011;35021;49.214;12.270;2023-04-09T06:58:41;7.15;;;6.45;;
49183;SDS011;35021;49.214;12.270;2023-04-09T07:01:07;8.68;;;6.18;;
49183;SDS011;35021;49.214;12.270;2023-04-09T07:03:34;7.32;;;6.47;;
49183;SDS011;35021;49.214;12.270;2023-04-09T07:06:02;6.47;;;5.82;;
49183;SDS011;35021;49.214;12.270;2023-04-09T07:08:30;6.57;;;5.90;;
49183;SDS011;35021;49.214;12.270;2023-04-09T07:10:57;8.32;;;5.90;;
49183;SDS011;35021;49.214;12.270;2023-04-09T07:13:24;5.95;;;5.45;;
49183;SDS011;35021;49.214;12.270;2023-04-09T07:15:51;5.90;;;5.25;;
49183;SDS011;35021;49.214;12.270;2023-04-09T07:18:18;7.05;;;5.80;;
49183;SDS011;35021;49.214;12.270;2023-04-09T07:20:45;6.25;;;5.65;;
49183;SDS011;35021;49.214;12.270;2023-04-09T07:23:12;7.05;;;6.18;;
49183;SDS011;35021;49.214;12.270;2023-04-09T07:25:39;6.15;;;5.55;;
49183;SDS011;35021;49.214;12.270;2023-04-09T07:28:05;6.65;;;6.00;;
49183;SDS011;35021;49.214;12.270;2023-04-09T07:30:32;7.93;;;6.75;;
49183;SDS011;35021;49.214;12.270;2023-04-09T07:32:59;6.70;;;6.00;;
49183;SDS011;35021;49.214;12.270;2023-04-09T07:35:26;6.55;;;5.90;;
49183;SDS011;35021;49.214;12.270;2023-04-09T07:37:53;7.07;;;6.30;;
49183;SDS011;35021;49.214;12.270;2023-04-09T07:40:20;8.73;;;6.35;;
49183;SDS011;35021;49.214;12.270;2023-04-09T07:42:47;6.95;;;6.30;;
49183;SDS011;35021;49.214;12.270;2023-04-09T07:45:14;7.10;;;6.38;;
49183;SDS011;35021;49.214;12.270;2023-04-09T07:47:42;6.60;;;6.00;;
49183;SDS011;35021;49.214;12.270;2023-04-09T07:50:10;6.60;;;5.90;;
49183;SDS011;35021;49.214;12.270;2023-04-09T07:52:37;7.22;;;6.53;;
49183;SDS011;35021;49.214;12.270;2023-04-09T07:55:04;7.47;;;6.40;;
49183;SDS011;35021;49.214;12.270;2023-04-09T07:57:31;7.30;;;6.32;;
49183;SDS011;35021;49.214;12.270;2023-04-09T07:59:58;6.63;;;6.03;;
49183;SDS011;35021;49.214;12.270;2023-04-09T08:02:25;7.80;;;6.68;;
49183;SDS011;35021;49.214;12.270;2023-04-09T08:04:53;7.55;;;6.68;;
49183;SDS011;35021;49.214;12.270;2023-04-09T08:07:20;8.00;;;7.20;;
49183;SDS011;35021;49.214;12.270;2023-04-09T08:09:47;8.00;;;6.93;;
49183;SDS011;35021;49.214;12.270;2023-04-09T08:12:14;8.00;;;7.20;;
49183;SDS011;35021;49.214;12.270;2023-04-09T08:14:41;8.65;;;7.35;;
49183;SDS011;35021;49.214;12.270;2023-04-09T08:17:09;9.43;;;7.82;;
49183;SDS011;35021;49.214;12.270;2023-04-09T08:19:36;9.00;;;7.53;;
49183;SDS011;35021;49.214;12.270;2023-04-09T08:22:07;8.60;;;7.70;;
49183;SDS011;35021;49.214;12.270;2023-04-09T08:24:33;7.55;;;6.85;;
49183;SDS011;35021;49.214;12.270;2023-04-09T08:27:00;8.25;;;7.45;;
49183;SDS011;35021;49.214;12.270;2023-04-09T08:29:28;8.63;;;7.72;;
49183;SDS011;35021;49.214;12.270;2023-04-09T08:31:55;8.57;;;7.68;;
49183;SDS011;35021;49.214;12.270;2023-04-09T08:34:22;8.00;;;7.20;;
49183;SDS011;35021;49.214;12.270;2023-04-09T08:36:49;9.02;;;7.35;;
49183;SDS011;35021;49.214;12.270;2023-04-09T08:39:16;8.32;;;7.53;;
49183;SDS011;35021;49.214;12.270;2023-04-09T08:41:47;8.75;;;7.95;;
49183;SDS011;35021;49.214;12.270;2023-04-09T08:44:15;7.82;;;7.03;;
49183;SDS011;35021;49.214;12.270;2023-04-09T08:46:43;8.40;;;7.50;;
49183;SDS011;35021;49.214;12.270;2023-04-09T08:49:10;8.27;;;7.40;;
49183;SDS011;35021;49.214;12.270;2023-04-09T08:51:38;8.13;;;7.32;;
49183;SDS011;35021;49.214;12.270;2023-04-09T08:54:13;8.13;;;7.32;;
49183;SDS011;35021;49.214;12.270;2023-04-09T08:56:41;7.63;;;6.93;;
49183;SDS011;35021;49.214;12.270;2023-04-09T08:59:09;7.95;;;7.15;;
49183;SDS011;35021;49.214;12.270;2023-04-09T09:01:36;8.85;;;7.30;;
49183;SDS011;35021;49.214;12.270;2023-04-09T09:04:07;7.88;;;7.07;;
49183;SDS011;35021;49.214;12.270;2023-04-09T09:06:36;8.80;;;7.90;;
49183;SDS011;35021;49.214;12.270;2023-04-09T09:11:42;8.45;;;7.63;;
49183;SDS011;35021;49.214;12.270;2023-04-09T09:14:14;7.53;;;6.82;;
49183;SDS011;35021;49.214;12.270;2023-04-09T09:16:44;8.35;;;7.55;;
49183;SDS011;35021;49.214;12.270;2023-04-09T09:21:59;7.65;;;6.95;;
49183;SDS011;35021;49.214;12.270;2023-04-09T09:24:27;7.80;;;7.00;;
49183;SDS011;35021;49.214;12.270;2023-04-09T09:26:55;8.13;;;7.32;;
49183;SDS011;35021;49.214;12.270;2023-04-09T09:29:24;7.68;;;6.97;;
49183;SDS011;35021;49.214;12.270;2023-04-09T09:31:52;8.77;;;7.95;;
49183;SDS011;35021;49.214;12.270;2023-04-09T09:34:22;8.20;;;7.40;;
49183;SDS011;35021;49.214;12.270;2023-04-09T09:36:51;8.65;;;7.75;;
49183;SDS011;35021;49.214;12.270;2023-04-09T09:39:18;7.80;;;6.90;;
49183;SDS011;35021;49.214;12.270;2023-04-09T09:41:45;7.85;;;7.05;;
49183;SDS011;35021;49.214;12.270;2023-04-09T09:44:29;7.80;;;6.85;;
49183;SDS011;35021;49.214;12.270;2023-04-09T09:46:57;7.50;;;6.72;;
49183;SDS011;35021;49.214;12.270;2023-04-09T09:49:24;7.63;;;6.93;;
49183;SDS011;35021;49.214;12.270;2023-04-09T09:51:51;6.90;;;6.22;;
49183;SDS011;35021;49.214;12.270;2023-04-09T09:54:21;7.22;;;6.53;;
49183;SDS011;35021;49.214;12.270;2023-04-09T09:56:51;7.13;;;6.43;;
49183;SDS011;35021;49.214;12.270;2023-04-09T09:59:24;7.13;;;6.45;;
49183;SDS011;35021;49.214;12.270;2023-04-09T10:01:59;6.63;;;6.00;;
49183;SDS011;35021;49.214;12.270;2023-04-09T10:04:34;7.53;;;6.78;;
49183;SDS011;35021;49.214;12.270;2023-04-09T10:07:03;6.88;;;6.18;;
49183;SDS011;35021;49.214;12.270;2023-04-09T10:09:39;6.68;;;5.97;;
49183;SDS011;35021;49.214;12.270;2023-04-09T10:12:08;6.38;;;5.82;;
49183;SDS011;35021;49.214;12.270;2023-04-09T10:14:37;6.28;;;5.68;;
49183;SDS011;35021;49.214;12.270;2023-04-09T10:17:05;6.93;;;6.22;;
49183;SDS011;35021;49.214;12.270;2023-04-09T10:19:34;6.47;;;5.88;;
49183;SDS011;35021;49.214;12.270;2023-04-09T10:22:07;7.03;;;6.32;;
49183;SDS011;35021;49.214;12.270;2023-04-09T10:24:37;6.88;;;6.18;;
49183;SDS011;35021;49.214;12.270;2023-04-09T10:27:10;6.07;;;5.47;;
49183;SDS011;35021;49.214;12.270;2023-04-09T10:29:43;5.43;;;4.93;;
49183;SDS011;35021;49.214;12.270;2023-04-09T10:32:11;6.00;;;5.47;;
49183;SDS011;35021;49.214;12.270;2023-04-09T10:34:46;6.40;;;5.53;;
49183;SDS011;35021;49.214;12.270;2023-04-09T10:37:19;6.35;;;5.75;;
49183;SDS011;35021;49.214;12.270;2023-04-09T10:39:48;6.70;;;5.60;;
49183;SDS011;35021;49.214;12.270;2023-04-09T10:42:19;5.65;;;5.15;;
49183;SDS011;35021;49.214;12.270;2023-04-09T10:45:06;5.32;;;4.82;;
49183;SDS011;35021;49.214;12.270;2023-04-09T10:47:34;6.00;;;5.35;;
49183;SDS011;35021;49.214;12.270;2023-04-09T10:50:15;5.65;;;5.15;;
49183;SDS011;35021;49.214;12.270;2023-04-09T10:52:43;5.82;;;5.30;;
49183;SDS011;35021;49.214;12.270;2023-04-09T10:55:29;6.03;;;5.43;;
49183;SDS011;35021;49.214;12.270;2023-04-09T10:58:02;6.00;;;5.40;;
49183;SDS011;35021;49.214;12.270;2023-04-09T11:00:38;6.20;;;5.60;;
49183;SDS011;35021;49.214;12.270;2023-04-09T11:03:12;5.82;;;5.32;;
49183;SDS011;35021;49.214;12.270;2023-04-09T11:08:32;5.68;;;5.18;;
49183;SDS011;35021;49.214;12.270;2023-04-09T11:11:00;6.22;;;5.63;;
49183;SDS011;35021;49.214;12.270;2023-04-09T11:13:28;6.10;;;5.50;;
49183;SDS011;35021;49.214;12.270;2023-04-09T11:15:56;6.32;;;5.72;;
49183;SDS011;35021;49.214;12.270;2023-04-09T11:18:25;6.70;;;6.10;;
49183;SDS011;35021;49.214;12.270;2023-04-09T11:21:02;6.93;;;6.30;;
49183;SDS011;35021;49.214;12.270;2023-04-09T11:23:30;7.85;;;6.47;;
49183;SDS011;35021;49.214;12.270;2023-04-09T11:25:58;6.35;;;5.75;;
49183;SDS011;35021;49.214;12.270;2023-04-09T11:28:25;6.72;;;6.13;;
49183;SDS011;35021;49.214;12.270;2023-04-09T11:30:53;6.38;;;5.78;;
49183;SDS011;35021;49.214;12.270;2023-04-09T11:33:20;6.40;;;5.80;;
49183;SDS011;35021;49.214;12.270;2023-04-09T11:35:47;6.45;;;5.85;;
49183;SDS011;35021;49.214;12.270;2023-04-09T11:38:14;6.43;;;5.82;;
49183;SDS011;35021;49.214;12.270;2023-04-09T11:40:42;6.32;;;5.72;;
49183;SDS011;35021;49.214;12.270;2023-04-09T11:43:16;7.10;;;6.40;;
49183;SDS011;35021;49.214;12.270;2023-04-09T11:45:44;6.85;;;6.20;;
49183;SDS011;35021;49.214;12.270;2023-04-09T11:48:14;5.88;;;5.28;;
49183;SDS011;35021;49.214;12.270;2023-04-09T11:50:43;6.38;;;5.78;;
49183;SDS011;35021;49.214;12.270;2023-04-09T11:53:15;6.43;;;5.82;;
49183;SDS011;35021;49.214;12.270;2023-04-09T11:55:42;6.10;;;5.50;;
49183;SDS011;35021;49.214;12.270;2023-04-09T11:58:13;6.03;;;5.43;;
49183;SDS011;35021;49.214;12.270;2023-04-09T12:00:40;6.70;;;6.00;;
49183;SDS011;35021;49.214;12.270;2023-04-09T12:03:08;6.00;;;5.45;;
49183;SDS011;35021;49.214;12.270;2023-04-09T12:05:36;5.78;;;5.28;;
49183;SDS011;35021;49.214;12.270;2023-04-09T12:08:10;6.13;;;5.32;;
49183;SDS011;35021;49.214;12.270;2023-04-09T12:10:37;6.13;;;5.53;;
49183;SDS011;35021;49.214;12.270;2023-04-09T12:13:04;6.47;;;5.85;;
49183;SDS011;35021;49.214;12.270;2023-04-09T12:15:39;5.68;;;5.18;;
49183;SDS011;35021;49.214;12.270;2023-04-09T12:18:11;6.53;;;5.93;;
49183;SDS011;35021;49.214;12.270;2023-04-09T12:20:39;5.85;;;5.28;;
49183;SDS011;35021;49.214;12.270;2023-04-09T12:23:12;6.32;;;5.70;;
49183;SDS011;35021;49.214;12.270;2023-04-09T12:25:40;6.50;;;5.90;;
49183;SDS011;35021;49.214;12.270;2023-04-09T12:28:09;6.95;;;6.25;;
49183;SDS011;35021;49.214;12.270;2023-04-09T12:30:37;6.95;;;6.18;;
49183;SDS011;35021;49.214;12.270;2023-04-09T12:33:05;6.90;;;6.20;;
49183;SDS011;35021;49.214;12.270;2023-04-09T12:36:11;7.00;;;6.30;;
49183;SDS011;35021;49.214;12.270;2023-04-09T12:38:38;6.72;;;6.03;;
49183;SDS011;35021;49.214;12.270;2023-04-09T12:41:05;8.55;;;7.43;;
49183;SDS011;35021;49.214;12.270;2023-04-09T12:43:32;7.47;;;6.78;;
49183;SDS011;35021;49.214;12.270;2023-04-09T12:45:59;7.07;;;6.38;;
49183;SDS011;35021;49.214;12.270;2023-04-09T12:48:26;7.95;;;7.15;;
49183;SDS011;35021;49.214;12.270;2023-04-09T12:50:53;8.10;;;7.30;;
49183;SDS011;35021;49.214;12.270;2023-04-09T12:53:20;7.97;;;7.28;;
49183;SDS011;35021;49.214;12.270;2023-04-09T12:55:47;8.00;;;7.25;;
49183;SDS011;35021;49.214;12.270;2023-04-09T12:58:14;7.47;;;6.75;;
49183;SDS011;35021;49.214;12.270;2023-04-09T13:00:41;7.20;;;6.50;;
49183;SDS011;35021;49.214;12.270;2023-04-09T13:03:08;7.75;;;7.05;;
49183;SDS011;35021;49.214;12.270;2023-04-09T13:05:35;7.78;;;7.03;;
49183;SDS011;35021;49.214;12.270;2023-04-09T13:08:02;8.38;;;7.57;;
49183;SDS011;35021;49.214;12.270;2023-04-09T13:10:29;8.00;;;7.20;;
49183;SDS011;35021;49.214;12.270;2023-04-09T13:12:56;7.70;;;6.90;;
49183;SDS011;35021;49.214;12.270;2023-04-09T13:15:23;7.20;;;6.38;;
49183;SDS011;35021;49.214;12.270;2023-04-09T13:17:50;7.78;;;7.00;;
49183;SDS011;35021;49.214;12.270;2023-04-09T13:20:17;7.32;;;6.63;;
49183;SDS011;35021;49.214;12.270;2023-04-09T13:22:44;7.13;;;6.43;;
49183;SDS011;35021;49.214;12.270;2023-04-09T13:25:14;7.22;;;6.53;;
49183;SDS011;35021;49.214;12.270;2023-04-09T13:27:41;6.45;;;5.85;;
49183;SDS011;35021;49.214;12.270;2023-04-09T13:30:09;6.82;;;6.22;;
49183;SDS011;35021;49.214;12.270;2023-04-09T13:32:36;6.47;;;5.88;;
49183;SDS011;35021;49.214;12.270;2023-04-09T13:35:03;6.10;;;5.50;;
49183;SDS011;35021;49.214;12.270;2023-04-09T13:37:31;6.38;;;5.75;;
49183;SDS011;35021;49.214;12.270;2023-04-09T13:39:58;6.35;;;5.63;;
49183;SDS011;35021;49.214;12.270;2023-04-09T13:42:24;6.35;;;5.75;;
49183;SDS011;35021;49.214;12.270;2023-04-09T13:44:53;6.35;;;5.70;;
49183;SDS011;35021;49.214;12.270;2023-04-09T13:47:20;6.65;;;5.97;;
49183;SDS011;35021;49.214;12.270;2023-04-09T13:49:49;6.60;;;5.63;;
49183;SDS011;35021;49.214;12.270;2023-04-09T13:52:16;6.80;;;6.07;;
49183;SDS011;35021;49.214;12.270;2023-04-09T13:54:43;6.05;;;5.45;;
49183;SDS011;35021;49.214;12.270;2023-04-09T13:57:10;6.60;;;5.90;;
49183;SDS011;35021;49.214;12.270;2023-04-09T13:59:37;6.20;;;5.60;;
49183;SDS011;35021;49.214;12.270;2023-04-09T14:02:04;6.32;;;5.78;;
49183;SDS011;35021;49.214;12.270;2023-04-09T14:04:32;6.25;;;5.65;;
49183;SDS011;35021;49.214;12.270;2023-04-09T14:06:59;6.55;;;5.63;;
49183;SDS011;35021;49.214;12.270;2023-04-09T14:09:26;6.35;;;5.78;;
49183;SDS011;35021;49.214;12.270;2023-04-09T14:11:53;5.97;;;5.40;;
49183;SDS011;35021;49.214;12.270;2023-04-09T14:14:21;6.60;;;6.00;;
49183;SDS011;35021;49.214;12.270;2023-04-09T14:16:48;6.65;;;5.95;;
49183;SDS011;35021;49.214;12.270;2023-04-09T14:19:15;6.57;;;5.97;;
49183;SDS011;35021;49.214;12.270;2023-04-09T14:21:42;6.97;;;6.28;;
49183;SDS011;35021;49.214;12.270;2023-04-09T14:24:10;7.03;;;5.95;;
49183;SDS011;35021;49.214;12.270;2023-04-09T14:26:37;6.35;;;5.75;;
49183;SDS011;35021;49.214;12.270;2023-04-09T14:29:03;7.30;;;6.60;;
49183;SDS011;35021;49.214;12.270;2023-04-09T14:31:30;7.10;;;6.50;;
49183;SDS011;35021;49.214;12.270;2023-04-09T14:33:58;7.53;;;6.82;;
49183;SDS011;35021;49.214;12.270;2023-04-09T14:36:24;7.35;;;6.57;;
49183;SDS011;35021;49.214;12.270;2023-04-09T14:38:52;7.30;;;6.55;;
49183;SDS011;35021;49.214;12.270;2023-04-09T14:41:22;6.72;;;6.10;;
49183;SDS011;35021;49.214;12.270;2023-04-09T14:43:49;7.43;;;6.72;;
49183;SDS011;35021;49.214;12.270;2023-04-09T14:46:16;6.78;;;6.18;;
49183;SDS011;35021;49.214;12.270;2023-04-09T14:48:43;6.72;;;5.88;;
49183;SDS011;35021;49.214;12.270;2023-04-09T14:51:10;6.88;;;6.25;;
49183;SDS011;35021;49.214;12.270;2023-04-09T14:53:37;6.57;;;5.97;;